createdAt,value
2023-05-04T00:07:14.281Z,2.35
2023-05-04T00:17:17.479Z,3.65
2023-05-04T00:27:20.320Z,2.80
2023-05-04T00:37:23.358Z,2.83
2023-05-04T00:42:25.271Z,3.40
2023-05-04T00:52:29.381Z,2.50
2023-05-04T00:57:30.917Z,2.95
2023-05-04T01:07:42.982Z,3.53
2023-05-04T01:12:52.918Z,2.70
2023-05-04T01:17:54.438Z,2.42
2023-05-04T01:22:56.319Z,2.50
2023-05-04T01:28:08.977Z,2.90
2023-05-04T01:33:11.105Z,3.17
2023-05-04T01:38:12.658Z,3.17
2023-05-04T01:43:14.476Z,3.25
2023-05-04T01:53:17.355Z,2.75
2023-05-04T01:58:19.528Z,3.47
2023-05-04T02:03:21.132Z,2.65
2023-05-04T02:08:22.701Z,1.98
2023-05-04T02:13:24.261Z,2.55
2023-05-04T02:23:27.113Z,2.83
2023-05-04T02:28:28.582Z,3.00
2023-05-04T02:38:31.501Z,2.63
2023-05-04T02:43:32.953Z,3.00
2023-05-04T02:48:34.510Z,2.90
2023-05-04T02:53:35.975Z,3.00
2023-05-04T02:58:37.433Z,2.42
2023-05-04T03:03:38.867Z,2.58
2023-05-04T03:08:40.306Z,2.55
2023-05-04T03:13:41.847Z,2.58
2023-05-04T03:24:02.575Z,2.00
2023-05-04T03:29:04.525Z,2.53
2023-05-04T03:34:06.093Z,2.53
2023-05-04T03:39:07.878Z,2.55
2023-05-04T03:44:10.753Z,2.55
2023-05-04T03:49:12.337Z,2.92
2023-05-04T03:54:13.921Z,2.00
2023-05-04T04:04:17.853Z,3.08
2023-05-04T04:09:19.563Z,3.50
2023-05-04T04:14:21.110Z,2.97
2023-05-04T04:19:22.550Z,3.90
2023-05-04T04:24:24.019Z,4.20
2023-05-04T04:29:25.505Z,3.72
2023-05-04T04:34:27.131Z,2.95
2023-05-04T04:39:28.626Z,4.30
2023-05-04T04:44:30.092Z,4.50
2023-05-04T04:49:31.530Z,4.70
2023-05-04T04:54:33.019Z,4.60
2023-05-04T04:59:34.460Z,3.25
2023-05-04T05:04:39.524Z,4.10
2023-05-04T05:09:40.993Z,5.20
2023-05-04T05:14:43.012Z,5.28
2023-05-04T05:19:44.475Z,4.93
2023-05-04T05:24:45.921Z,5.50
2023-05-04T05:29:47.442Z,4.97
2023-05-04T05:34:49.267Z,3.38
2023-05-04T05:44:52.129Z,5.20
2023-05-04T05:49:54.342Z,4.97
2023-05-04T05:54:55.799Z,6.00
2023-05-04T05:59:57.934Z,6.75
2023-05-04T06:04:59.728Z,5.05
2023-05-04T06:10:01.544Z,5.68
2023-05-04T06:20:05.025Z,5.43
2023-05-04T06:25:08.307Z,6.65
2023-05-04T06:30:10.454Z,6.65
2023-05-04T06:35:12.104Z,6.28
2023-05-04T06:45:15.791Z,5.30
2023-05-04T06:50:17.306Z,3.30
2023-05-04T06:55:18.948Z,5.30
2023-05-04T07:05:22.584Z,6.43
2023-05-04T07:10:24.170Z,5.65
2023-05-04T07:20:27.559Z,3.95
2023-05-04T07:25:29.045Z,4.65
2023-05-04T07:35:31.858Z,4.85
2023-05-04T07:45:34.648Z,4.50
2023-05-04T07:55:38.091Z,4.60
2023-05-04T08:00:39.538Z,3.55
2023-05-04T08:10:42.623Z,3.58
2023-05-04T08:20:45.417Z,2.97
2023-05-04T08:25:47.064Z,3.45
2023-05-04T08:30:48.522Z,3.08
2023-05-04T08:35:49.952Z,2.60
2023-05-04T08:40:52.307Z,2.42
2023-05-04T08:45:53.839Z,2.42
2023-05-04T08:50:55.679Z,2.97
2023-05-04T08:55:59.148Z,2.45
2023-05-04T09:01:01.287Z,2.53
2023-05-04T09:06:03.443Z,2.20
2023-05-04T09:11:05.169Z,2.80
2023-05-04T09:16:07.622Z,2.10
2023-05-04T09:21:09.418Z,2.42
2023-05-04T09:26:10.872Z,2.00
2023-05-04T09:31:12.371Z,2.58
2023-05-04T09:36:15.625Z,2.10
2023-05-04T09:41:17.112Z,2.00
2023-05-04T09:46:19.571Z,2.28
2023-05-04T09:51:23.566Z,2.60
2023-05-04T09:56:42.609Z,2.08
2023-05-04T10:01:45.078Z,2.30
2023-05-04T10:06:46.792Z,2.33
2023-05-04T10:11:49.100Z,2.22
2023-05-04T10:17:02.832Z,3.45
2023-05-04T10:22:38.549Z,2.38
2023-05-04T10:28:01.413Z,2.65
2023-05-04T10:33:04.470Z,2.25
2023-05-04T10:38:06.360Z,1.90
2023-05-04T10:43:08.519Z,2.50
2023-05-04T10:48:10.162Z,1.75
2023-05-04T10:53:16.292Z,2.20
2023-05-04T10:58:28.392Z,2.20
2023-05-04T11:03:41.076Z,1.90
2023-05-04T11:08:43.180Z,2.13
2023-05-04T11:13:48.537Z,2.20
2023-05-04T11:18:50.008Z,2.03
2023-05-04T11:23:58.857Z,2.45
2023-05-04T11:29:00.310Z,1.85
2023-05-04T11:34:01.790Z,2.00
2023-05-04T11:39:05.952Z,1.92
2023-05-04T11:44:08.106Z,1.88
2023-05-04T11:49:09.578Z,2.33
2023-05-04T11:54:19.654Z,1.50
2023-05-04T11:59:21.090Z,1.65
2023-05-04T12:04:22.669Z,1.58
2023-05-04T12:09:26.809Z,1.70
2023-05-04T12:14:28.365Z,1.67
2023-05-04T12:19:31.244Z,1.55
2023-05-04T12:24:32.870Z,1.75
2023-05-04T12:29:34.322Z,1.77
2023-05-04T12:34:48.104Z,2.13
2023-05-04T12:39:49.588Z,1.85
2023-05-04T12:44:51.123Z,1.83
2023-05-04T12:49:55.972Z,1.40
2023-05-04T12:54:57.418Z,1.85
2023-05-04T12:59:59.341Z,1.70
2023-05-04T13:05:00.853Z,2.28
2023-05-04T13:10:02.306Z,1.70
2023-05-04T13:15:04.096Z,1.75
2023-05-04T13:20:07.105Z,1.60
2023-05-04T13:25:09.298Z,1.50
2023-05-04T13:30:11.931Z,1.23
2023-05-04T13:35:13.552Z,1.65
2023-05-04T13:40:15.006Z,2.00
2023-05-04T13:45:16.605Z,1.80
2023-05-04T13:50:18.827Z,1.77
2023-05-04T13:55:20.340Z,1.48
2023-05-04T14:00:21.996Z,1.58
2023-05-04T14:05:23.496Z,1.85
2023-05-04T14:10:25.004Z,1.80
2023-05-04T14:15:27.507Z,1.35
2023-05-04T14:20:30.177Z,1.42
2023-05-04T14:25:32.086Z,1.65
2023-05-04T14:30:33.926Z,1.65
2023-05-04T14:35:37.415Z,1.50
2023-05-04T14:46:17.242Z,1.45
2023-05-04T14:51:55.497Z,2.10
2023-05-04T14:57:00.995Z,1.80
2023-05-04T15:02:05.413Z,1.73
2023-05-04T15:07:08.108Z,1.80
2023-05-04T15:12:09.682Z,1.50
2023-05-04T15:17:11.203Z,1.77
2023-05-04T15:22:16.692Z,1.75
2023-05-04T15:27:18.832Z,1.50
2023-05-04T15:32:20.276Z,2.10
2023-05-04T15:37:21.968Z,1.67
2023-05-04T15:42:23.408Z,4.78
2023-05-04T15:47:24.933Z,2.85
2023-05-04T15:52:26.757Z,1.65
2023-05-04T15:57:28.216Z,1.63
2023-05-04T16:02:29.651Z,1.33
2023-05-04T16:07:31.179Z,1.45
2023-05-04T16:12:32.636Z,1.42
2023-05-04T16:17:35.363Z,1.80
2023-05-04T16:22:36.986Z,1.42
2023-05-04T16:27:38.596Z,1.63
2023-05-04T16:32:40.060Z,1.50
2023-05-04T16:37:41.522Z,1.88
2023-05-04T16:42:43.687Z,1.60
2023-05-04T16:47:45.694Z,1.70
2023-05-04T16:52:47.191Z,1.75
2023-05-04T16:57:48.619Z,1.75
2023-05-04T17:02:51.758Z,2.03
2023-05-04T17:07:53.949Z,1.95
2023-05-04T17:12:55.532Z,1.80
2023-05-04T17:17:57.223Z,2.00
2023-05-04T17:22:58.902Z,1.58
2023-05-04T17:28:00.640Z,2.00
2023-05-04T17:33:02.154Z,1.90
2023-05-04T17:38:03.624Z,2.00
2023-05-04T17:43:05.092Z,1.80
2023-05-04T17:48:06.576Z,1.90
2023-05-04T17:53:08.098Z,1.80
2023-05-04T17:58:09.540Z,2.08
2023-05-04T18:03:11.047Z,2.15
2023-05-04T18:08:13.037Z,1.48
2023-05-04T18:13:14.633Z,1.60
2023-05-04T18:18:16.321Z,1.60
2023-05-04T18:23:17.748Z,1.70
2023-05-04T18:28:19.179Z,1.95
2023-05-04T18:33:20.619Z,1.48
2023-05-04T18:38:22.124Z,2.50
2023-05-04T18:43:23.712Z,2.10
2023-05-04T18:48:25.187Z,1.90
2023-05-04T18:53:26.776Z,1.60
2023-05-04T18:58:28.429Z,1.45
2023-05-04T19:03:30.009Z,1.77
2023-05-04T19:08:31.573Z,1.63
2023-05-04T19:13:33.166Z,1.60
2023-05-04T19:18:34.647Z,1.88
2023-05-04T19:23:36.106Z,1.73
2023-05-04T19:28:39.822Z,2.00
2023-05-04T19:33:48.494Z,1.40
2023-05-04T19:38:50.997Z,1.63
2023-05-04T19:43:52.476Z,1.80
2023-05-04T19:48:53.943Z,1.95
2023-05-04T19:53:56.178Z,2.60
2023-05-04T19:58:57.614Z,2.08
2023-05-04T20:03:59.139Z,1.70
2023-05-04T20:09:00.713Z,1.80
2023-05-04T20:14:02.165Z,2.50
2023-05-04T20:19:06.744Z,2.38
2023-05-04T20:24:08.747Z,2.03
2023-05-04T20:29:10.376Z,2.28
2023-05-04T20:34:11.997Z,1.80
2023-05-04T20:39:13.598Z,2.42
2023-05-04T20:44:16.505Z,2.38
2023-05-04T20:49:17.939Z,2.33
2023-05-04T20:54:19.594Z,1.60
2023-05-04T20:59:21.094Z,4.25
2023-05-04T21:04:22.543Z,3.58
2023-05-04T21:09:24.105Z,3.20
2023-05-04T21:14:25.758Z,2.40
2023-05-04T21:19:27.280Z,2.35
2023-05-04T21:24:28.742Z,3.22
2023-05-04T21:29:30.376Z,2.50
2023-05-04T21:34:31.834Z,2.33
2023-05-04T21:39:33.278Z,2.35
2023-05-04T21:44:34.747Z,2.00
2023-05-04T21:49:36.557Z,2.50
2023-05-04T21:54:37.993Z,2.35
2023-05-04T21:59:39.629Z,2.50
2023-05-04T22:04:44.350Z,3.10
2023-05-04T22:09:45.823Z,2.45
2023-05-04T22:14:47.271Z,3.25
2023-05-04T22:19:48.806Z,3.00
2023-05-04T22:24:50.571Z,2.67
2023-05-04T22:29:52.093Z,2.30
2023-05-04T22:34:53.572Z,2.17
2023-05-04T22:39:55.033Z,2.10
2023-05-04T22:44:56.855Z,2.72
2023-05-04T22:49:58.383Z,2.40
2023-05-04T22:54:59.860Z,2.92
2023-05-04T23:00:01.327Z,2.60
2023-05-04T23:05:03.811Z,2.60
2023-05-04T23:10:06.048Z,2.13
2023-05-04T23:15:08.584Z,2.83
2023-05-04T23:20:10.610Z,2.03
2023-05-04T23:25:12.222Z,3.42
2023-05-04T23:30:14.108Z,2.63
2023-05-04T23:35:15.615Z,2.40
2023-05-04T23:40:17.120Z,3.30
2023-05-04T23:45:18.616Z,3.28
2023-05-04T23:50:20.104Z,3.00
2023-05-04T23:55:21.755Z,3.22
